Aérodrome :
LOGIN :

S'inscrire | Disclaimer

   EN    FR    IT 

 










Légende :    VFR   VFR Marginal   IFR   IFR Intensif   IFR Très Intensif
Visi : 
Plafond : 
>= 8 km
>= 3000ft
5 à 8 km
1000 à 3000 ft
1500m à 5 km
500 à 1000 ft
800 à 1500m
200 à 500 ft
< 800m
< 200 ft
Symboles :   Orages  Brouillard  Fortes neiges  Fortes précipitations  Vent > 20 kt
SIGMETs :   Divers  Orages  Givrage  Turbulence  Onde Orograph.  Cendres Volcan.







- Altitude de l'aérodrome : 336 ft
- Code IATA : GCI
- Voir les cartes d'approche


EGJB - Guernsey

DERNIER METAR :
  • 132020Z 11017KT 9999 FEW020 04/M01 Q1015

METARs EXPIRÉS :
  • 131950Z 11018KT 9999 FEW020 04/M01 Q1014
  • 131920Z 10016KT 9999 FEW020 04/M01 Q1014
  • 131850Z 10017KT 9999 FEW018 04/M01 Q1014
  • 131820Z 10016KT 9999 FEW018 04/M00 Q1014
  • 131750Z 10016KT 9999 FEW018 04/M00 Q1013

TAF TAF EGJB
Valide du 13 à 21h jusqu'au 14 à 06h UTC


132003Z 1321/1406 11014KT 9999 FEW020
ATIS : +44 1481 238 957
Pas de NOTAMs connus pour ce terrain.
2 SIGMETs publiés pour la FIR Brest (LFRR) :
 
Turbulence forte
LFRR SIGMET 5 VALID 132000/140000 LFPW
LFRR BREST FIR/UIR SEV TURB FCST WI N4915 W00700 - N4930 W00445 - N4430 W00145 - N4330 W00145 - N4415 W00445 - N4915 W00700 FL200/340 MOV E 15KT NC=
Givrage fort
LFRR SIGMET 4 VALID 131730/132000 LFPW
LFRR BREST FIR/UIR SEV ICE OBS AT 1720Z WI N4815 W00500 - N4845 W00415 - N4745 W00245 - N4715 W00330 - N4815 W00500 FL050/100 STNR NC=



MET'MAP, la Météo Aéronautique d'un coup d'oeil ! - Copyright ORBIFLY Décembre 2007 - Disclaimer

ORBIFLY MET'MAP TEAM :

Programmation & Développement : Alexandra Zaïnal
Conception & Développement : Baudouin d'Aumeries
Co-Programmation & Développement : Marc-Olivier Méhu
Soutien technique & logistique : Manuel Goepfert

Contact : metmap@orbifly.com




SOURCES & CREDITS :

   NOAA